createdAt,value
2017-02-17T00:00:49.789Z,65
2017-02-17T00:01:49.817Z,65.29
2017-02-17T00:02:49.835Z,65.29
2017-02-17T00:03:49.846Z,65.1
2017-02-17T00:04:49.849Z,64.9
2017-02-17T00:05:49.887Z,65.19
2017-02-17T00:06:49.894Z,65.1
2017-02-17T00:07:49.597Z,64.81
2017-02-17T00:08:49.926Z,65.1
2017-02-17T00:09:49.933Z,64.9
2017-02-17T00:10:49.946Z,64.9
2017-02-17T00:11:49.955Z,64.9
2017-02-17T00:12:49.983Z,64.9
2017-02-17T00:13:49.985Z,65.19
2017-02-17T00:14:50.000Z,65.1
2017-02-17T00:15:50.031Z,65.58
2017-02-17T00:16:50.038Z,65.19
2017-02-17T00:17:50.196Z,65.19
2017-02-17T00:18:50.074Z,65.58
2017-02-17T00:19:50.088Z,64.72
2017-02-17T00:20:50.096Z,65.1
2017-02-17T00:21:50.114Z,65.19
2017-02-17T00:22:50.125Z,65.48
2017-02-17T00:23:50.140Z,65.29
2017-02-17T00:24:50.158Z,65.29
2017-02-17T00:25:50.191Z,65.1
2017-02-17T00:26:50.195Z,65.58
2017-02-17T00:27:50.299Z,65.1
2017-02-17T00:28:50.223Z,65.19
2017-02-17T00:29:50.225Z,65.38
2017-02-17T00:30:50.268Z,65.38
2017-02-17T00:31:50.265Z,65.19
2017-02-17T00:32:50.269Z,65.19
2017-02-17T00:33:50.289Z,65.38
2017-02-17T00:34:50.313Z,65.58
2017-02-17T00:35:50.327Z,65.38
2017-02-17T00:36:50.335Z,65.19
2017-02-17T00:37:50.349Z,65
2017-02-17T00:38:50.363Z,65.38
2017-02-17T00:39:50.383Z,65
2017-02-17T00:40:50.401Z,65.1
2017-02-17T00:41:50.408Z,65
2017-02-17T00:42:50.443Z,65.1
2017-02-17T00:43:50.055Z,65.48
2017-02-17T00:44:50.459Z,65.95
2017-02-17T00:45:50.478Z,65.77
2017-02-17T00:46:50.488Z,65.86
2017-02-17T00:47:50.517Z,65.77
2017-02-17T00:48:50.515Z,65.67
2017-02-17T00:49:50.529Z,65.77
2017-02-17T00:50:50.544Z,65.77
2017-02-17T00:51:50.554Z,65.86
2017-02-17T00:52:50.586Z,65.38
2017-02-17T00:53:50.597Z,65.77
2017-02-17T00:54:50.612Z,65.95
2017-02-17T00:55:50.616Z,65.77
2017-02-17T00:56:50.641Z,65.67
2017-02-17T00:57:50.668Z,65.67
2017-02-17T00:58:50.680Z,65.77
2017-02-17T00:59:50.686Z,65.86
2017-02-17T01:00:50.689Z,65.77
2017-02-17T01:01:50.713Z,65.77
2017-02-17T01:02:50.726Z,65.86
2017-02-17T01:03:50.743Z,65.86
2017-02-17T01:04:50.763Z,65.29
2017-02-17T01:05:50.787Z,65.67
2017-02-17T01:06:50.791Z,65.48
2017-02-17T01:07:50.801Z,65.67
2017-02-17T01:08:50.819Z,65.48
2017-02-17T01:09:50.842Z,65.77
2017-02-17T01:10:50.863Z,65.58
2017-02-17T01:11:50.859Z,65.77
2017-02-17T01:12:50.878Z,65.67
2017-02-17T01:13:50.897Z,65.58
2017-02-17T01:14:50.921Z,65.95
2017-02-17T01:15:50.936Z,66.05
2017-02-17T01:16:50.954Z,65.95
2017-02-17T01:17:50.946Z,65.77
2017-02-17T01:18:50.963Z,65.67
2017-02-17T01:19:50.983Z,66.05
2017-02-17T01:20:50.997Z,66.14
2017-02-17T01:21:51.004Z,65.67
2017-02-17T01:22:51.039Z,65.58
2017-02-17T01:23:51.048Z,65.86
2017-02-17T01:24:51.050Z,65.77
2017-02-17T01:25:51.076Z,65.58
2017-02-17T01:26:51.085Z,65.58
2017-02-17T01:27:51.104Z,65.67
2017-02-17T01:28:51.113Z,65.67
2017-02-17T01:29:51.134Z,65.77
2017-02-17T01:30:51.147Z,65.67
2017-02-17T01:31:51.156Z,65.67
2017-02-17T01:32:51.179Z,65.77
2017-02-17T01:33:51.203Z,66.14
2017-02-17T01:34:51.209Z,65.58
2017-02-17T01:35:51.233Z,65.58
2017-02-17T01:36:51.247Z,65.58
2017-02-17T01:37:51.252Z,65.64
2017-02-17T01:38:51.274Z,66.02
2017-02-17T01:39:51.300Z,65.54
2017-02-17T01:40:51.311Z,65.77
2017-02-17T01:41:51.320Z,65.54
2017-02-17T01:42:51.330Z,65.48
2017-02-17T01:43:51.345Z,65.54
2017-02-17T01:44:51.361Z,65.73
2017-02-17T01:45:51.379Z,65.92
2017-02-17T01:46:50.992Z,65.73
2017-02-17T01:47:51.398Z,65.64
2017-02-17T01:48:51.411Z,65.92
2017-02-17T01:49:51.033Z,66.02
2017-02-17T01:50:51.454Z,65.73
2017-02-17T01:51:51.453Z,65.64
2017-02-17T01:52:51.476Z,65.73
2017-02-17T01:53:51.492Z,66.02
2017-02-17T01:54:51.513Z,65.83
2017-02-17T01:55:51.517Z,65.92
2017-02-17T01:56:51.518Z,65.64
2017-02-17T01:57:51.547Z,65.35
2017-02-17T01:58:51.575Z,65.54
2017-02-17T01:59:51.594Z,66.02
2017-02-17T02:00:51.610Z,65.73
2017-02-17T02:01:51.614Z,65.92
2017-02-17T02:02:51.629Z,65.64
2017-02-17T02:03:51.637Z,66.11
2017-02-17T02:04:51.661Z,65.73
2017-02-17T02:05:51.678Z,65.54
2017-02-17T02:06:51.676Z,65.54
2017-02-17T02:07:51.696Z,65.73
2017-02-17T02:08:51.717Z,65.73
2017-02-17T02:09:51.719Z,65.73
2017-02-17T02:10:51.749Z,65.92
2017-02-17T02:11:51.751Z,65.83
2017-02-17T02:12:51.777Z,65.92
2017-02-17T02:13:51.827Z,65.64
2017-02-17T02:14:51.799Z,65.83
2017-02-17T02:15:51.817Z,65.92
2017-02-17T02:16:51.819Z,65.73
2017-02-17T02:17:51.842Z,65.83
2017-02-17T02:18:51.853Z,65.83
2017-02-17T02:19:51.870Z,66.02
2017-02-17T02:20:51.895Z,65.73
2017-02-17T02:21:51.918Z,65.73
2017-02-17T02:22:51.921Z,65.83
2017-02-17T02:23:51.943Z,66.2
2017-02-17T02:24:51.930Z,66.02
2017-02-17T02:25:51.953Z,66.11
2017-02-17T02:26:51.966Z,66.2
2017-02-17T02:27:51.987Z,66.02
2017-02-17T02:28:52.004Z,65.92
2017-02-17T02:29:52.011Z,66.02
2017-02-17T02:30:52.028Z,65.92
2017-02-17T02:31:52.043Z,65.73
2017-02-17T02:32:52.055Z,65.73
2017-02-17T02:33:52.114Z,65.92
2017-02-17T02:34:52.083Z,65.83
2017-02-17T02:35:52.098Z,66.11
2017-02-17T02:36:52.129Z,66.2
2017-02-17T02:37:52.133Z,66.02
2017-02-17T02:38:52.138Z,66.02
2017-02-17T02:39:52.166Z,66.39
2017-02-17T02:40:52.169Z,65.92
2017-02-17T02:41:52.197Z,66.11
2017-02-17T02:42:52.201Z,66.11
2017-02-17T02:43:52.222Z,66.39
2017-02-17T02:44:52.236Z,65.92
2017-02-17T02:45:52.245Z,65.73
2017-02-17T02:46:52.259Z,65.73
2017-02-17T02:47:52.277Z,65.64
2017-02-17T02:48:52.297Z,66.02
2017-02-17T02:49:52.299Z,65.51
2017-02-17T02:50:52.314Z,65.73
2017-02-17T02:51:52.339Z,66.02
2017-02-17T02:52:52.336Z,65.6
2017-02-17T02:53:52.354Z,66.08
2017-02-17T02:54:52.370Z,65.7
2017-02-17T02:55:52.389Z,66.2
2017-02-17T02:56:52.396Z,65.89
2017-02-17T02:57:52.422Z,66.08
2017-02-17T02:58:52.434Z,66.08
2017-02-17T02:59:52.448Z,65.89
2017-02-17T03:00:52.471Z,65.89
2017-02-17T03:01:52.484Z,66.36
2017-02-17T03:02:52.488Z,65.89
2017-02-17T03:03:52.506Z,66.08
2017-02-17T03:04:52.513Z,65.89
2017-02-17T03:05:52.539Z,65.89
2017-02-17T03:06:52.547Z,65.99
2017-02-17T03:07:52.560Z,65.89
2017-02-17T03:08:52.569Z,65.89
2017-02-17T03:09:52.596Z,65.89
2017-02-17T03:10:52.609Z,66.08
2017-02-17T03:11:52.621Z,66.27
2017-02-17T03:12:52.645Z,65.89
2017-02-17T03:13:52.660Z,66.17
2017-02-17T03:14:52.656Z,65.89
2017-02-17T03:15:52.686Z,65.89
2017-02-17T03:16:52.692Z,66.08
2017-02-17T03:17:52.717Z,66.36
2017-02-17T03:18:52.726Z,66.27
2017-02-17T03:19:52.733Z,65.89
2017-02-17T03:20:52.731Z,66.27
2017-02-17T03:21:52.759Z,66.17
2017-02-17T03:22:52.777Z,65.99
2017-02-17T03:23:52.775Z,65.7
2017-02-17T03:24:52.793Z,66.17
2017-02-17T03:25:52.829Z,65.99
2017-02-17T03:26:52.833Z,65.99
2017-02-17T03:27:52.840Z,65.89
2017-02-17T03:28:52.853Z,65.51
2017-02-17T03:29:52.976Z,65.6
2017-02-17T03:30:52.981Z,65.99
2017-02-17T03:31:52.990Z,65.89
2017-02-17T03:32:53.011Z,65.89
2017-02-17T03:33:53.029Z,65.7
2017-02-17T03:34:53.036Z,65.6
2017-02-17T03:35:53.048Z,65.89
2017-02-17T03:36:53.056Z,65.89
2017-02-17T03:37:53.054Z,66.08
2017-02-17T03:38:53.057Z,66.17
2017-02-17T03:39:53.065Z,65.8
2017-02-17T03:40:53.080Z,65.7
2017-02-17T03:41:53.089Z,65.99
2017-02-17T03:42:53.142Z,65.51
2017-02-17T03:43:53.157Z,65.6
2017-02-17T03:44:53.205Z,65.51
2017-02-17T03:45:52.714Z,65.89
2017-02-17T03:46:53.176Z,65.89
2017-02-17T03:47:53.176Z,65.32
2017-02-17T03:48:53.188Z,65.8
2017-02-17T03:49:53.199Z,65.7
2017-02-17T03:50:53.319Z,65.8
2017-02-17T03:51:53.215Z,65.6
2017-02-17T03:52:53.210Z,65.89
2017-02-17T03:53:53.216Z,65.6
2017-02-17T03:54:53.271Z,65.7
2017-02-17T03:55:53.280Z,65.8
2017-02-17T03:56:53.278Z,65.51
2017-02-17T03:57:53.283Z,66.08
2017-02-17T03:58:53.300Z,65.6
2017-02-17T03:59:53.308Z,65.89
2017-02-17T04:00:53.363Z,65.7
2017-02-17T04:01:53.012Z,65.51
2017-02-17T04:02:53.342Z,65.99
2017-02-17T04:03:53.355Z,65.89
2017-02-17T04:04:53.363Z,66.17
2017-02-17T04:05:53.380Z,66.17
2017-02-17T04:06:53.403Z,66.08
2017-02-17T04:07:53.420Z,65.89
2017-02-17T04:08:53.453Z,65.99
2017-02-17T04:09:53.445Z,65.89
2017-02-17T04:10:53.469Z,66.08
2017-02-17T04:11:53.482Z,66.08
2017-02-17T04:12:53.493Z,65.89
2017-02-17T04:13:53.497Z,66.08
2017-02-17T04:14:53.513Z,65.99
2017-02-17T04:15:53.535Z,65.99
2017-02-17T04:16:53.549Z,66.17
2017-02-17T04:17:53.563Z,65.8
2017-02-17T04:18:53.577Z,65.99
2017-02-17T04:19:53.585Z,65.99
2017-02-17T04:20:53.607Z,66.46
2017-02-17T04:21:53.607Z,66.36
2017-02-17T04:22:53.624Z,66.27
2017-02-17T04:23:53.640Z,65.7
2017-02-17T04:24:53.669Z,65.89
2017-02-17T04:25:53.675Z,66.36
2017-02-17T04:26:53.689Z,66.55
2017-02-17T04:27:53.690Z,66.74
2017-02-17T04:28:53.705Z,66.08
2017-02-17T04:29:53.734Z,65.99
2017-02-17T04:30:53.740Z,66.17
2017-02-17T04:31:53.794Z,66.55
2017-02-17T04:32:53.774Z,66.65
2017-02-17T04:33:53.798Z,66.36
2017-02-17T04:34:53.796Z,66.65
2017-02-17T04:35:53.808Z,66.46
2017-02-17T04:36:53.823Z,66.36
2017-02-17T04:37:53.848Z,66.36
2017-02-17T04:38:53.864Z,66.36
2017-02-17T04:39:53.866Z,66.46
2017-02-17T04:40:53.878Z,66.36
2017-02-17T04:41:53.887Z,66.55
2017-02-17T04:42:53.918Z,66.36
2017-02-17T04:43:53.939Z,66.36
2017-02-17T04:44:53.937Z,66.27
2017-02-17T04:45:53.950Z,66.17
2017-02-17T04:46:53.962Z,66.36
2017-02-17T04:47:53.979Z,66.65
2017-02-17T04:48:53.995Z,66.46
2017-02-17T04:49:54.000Z,66.46
2017-02-17T04:50:54.032Z,66.74
2017-02-17T04:51:54.039Z,66.65
2017-02-17T04:52:54.056Z,66.65
2017-02-17T04:53:54.071Z,66.46
2017-02-17T04:54:54.075Z,66.46
2017-02-17T04:55:54.106Z,66.74
2017-02-17T04:56:54.111Z,66.36
2017-02-17T04:57:54.140Z,66.74
2017-02-17T04:58:54.167Z,66.74
2017-02-17T04:59:54.148Z,66.65
2017-02-17T05:00:54.163Z,66.84
2017-02-17T05:01:54.181Z,66.65
2017-02-17T05:02:54.197Z,66.65
2017-02-17T05:03:54.201Z,66.27
2017-02-17T05:04:54.224Z,66.46
2017-02-17T05:05:54.228Z,66.46
2017-02-17T05:06:54.272Z,66.17
2017-02-17T05:07:54.265Z,66.27
2017-02-17T05:08:54.275Z,66.55
2017-02-17T05:09:54.293Z,66.46
2017-02-17T05:10:54.316Z,66.94
2017-02-17T05:11:54.315Z,67.03
2017-02-17T05:12:54.326Z,66.94
2017-02-17T05:13:54.333Z,66.84
2017-02-17T05:14:54.356Z,66.74
2017-02-17T05:15:54.368Z,66.65
2017-02-17T05:16:54.387Z,66.84
2017-02-17T05:17:54.389Z,66.84
2017-02-17T05:18:54.420Z,66.94
2017-02-17T05:19:54.428Z,66.94
2017-02-17T05:20:54.448Z,67.41
2017-02-17T05:21:54.462Z,67.22
2017-02-17T05:22:54.474Z,67.13
2017-02-17T05:23:54.479Z,67.19
2017-02-17T05:24:54.495Z,67.03
2017-02-17T05:25:54.524Z,66.84
2017-02-17T05:26:54.523Z,66.84
2017-02-17T05:27:54.545Z,66.27
2017-02-17T05:28:54.573Z,66.17
2017-02-17T05:29:54.561Z,66.27
2017-02-17T05:30:54.575Z,66.46
2017-02-17T05:31:54.593Z,66.46
2017-02-17T05:32:54.601Z,66.17
2017-02-17T05:33:54.631Z,66.27
2017-02-17T05:34:54.633Z,66.71
2017-02-17T05:35:54.650Z,66.42
2017-02-17T05:36:54.669Z,66.42
2017-02-17T05:37:54.683Z,66.42
2017-02-17T05:38:54.699Z,66.24
2017-02-17T05:39:54.699Z,66.33
2017-02-17T05:40:54.716Z,66.24
2017-02-17T05:41:54.728Z,66.42
2017-02-17T05:42:54.769Z,66.52
2017-02-17T05:43:54.756Z,66.33
2017-02-17T05:44:54.786Z,66.33
2017-02-17T05:45:54.776Z,65.86
2017-02-17T05:46:54.806Z,66.71
2017-02-17T05:47:54.823Z,66.33
2017-02-17T05:48:54.932Z,66.61
2017-02-17T05:49:54.937Z,66.52
2017-02-17T05:50:54.945Z,66.42
2017-02-17T05:51:54.961Z,66.42
2017-02-17T05:52:54.955Z,66.24
2017-02-17T05:53:54.965Z,66.24
2017-02-17T05:54:54.970Z,66.52
2017-02-17T05:55:54.983Z,66.05
2017-02-17T05:56:54.996Z,66.42
2017-02-17T05:57:54.998Z,66.33
2017-02-17T05:58:54.992Z,66.52
2017-02-17T05:59:55.009Z,66.33
2017-02-17T06:00:55.078Z,66.05
2017-02-17T06:01:55.090Z,66.24
2017-02-17T06:02:55.083Z,66.42
2017-02-17T06:03:55.095Z,66.14
2017-02-17T06:04:55.096Z,66.14
2017-02-17T06:05:55.111Z,66.14
2017-02-17T06:06:55.111Z,66.33
2017-02-17T06:07:55.120Z,66.14
2017-02-17T06:08:55.130Z,66.33
2017-02-17T06:09:55.139Z,66.33
2017-02-17T06:10:55.189Z,66.42
2017-02-17T06:11:55.202Z,65.86
2017-02-17T06:12:55.273Z,66.8
2017-02-17T06:13:55.278Z,66.14
2017-02-17T06:14:55.284Z,66.05
2017-02-17T06:15:55.274Z,66.33
2017-02-17T06:16:55.296Z,66.71
2017-02-17T06:17:55.304Z,66.14
2017-02-17T06:18:54.941Z,66.05
2017-02-17T06:19:55.479Z,66.52
2017-02-17T06:20:55.479Z,66.05
2017-02-17T06:21:55.492Z,66.33
2017-02-17T06:22:55.489Z,66.14
2017-02-17T06:23:55.506Z,66.05
2017-02-17T06:24:55.515Z,66.71
2017-02-17T06:25:55.421Z,66.24
2017-02-17T06:26:55.423Z,66.61
2017-02-17T06:27:55.654Z,66.33
2017-02-17T06:28:55.579Z,66.42
2017-02-17T06:29:55.588Z,66.42
2017-02-17T06:30:55.407Z,66.24
2017-02-17T06:31:55.415Z,66.24
2017-02-17T06:32:55.449Z,66.33
2017-02-17T06:33:55.458Z,66.24
2017-02-17T06:34:55.460Z,66.8
2017-02-17T06:35:55.472Z,66.24
2017-02-17T06:36:55.462Z,66.8
2017-02-17T06:37:55.499Z,66.61
2017-02-17T06:38:55.510Z,66.71
2017-02-17T06:39:55.522Z,66.61
2017-02-17T06:40:55.535Z,66.61
2017-02-17T06:41:55.554Z,67
2017-02-17T06:42:55.551Z,67
2017-02-17T06:43:55.575Z,67.09
2017-02-17T06:44:55.582Z,67
2017-02-17T06:45:55.610Z,67.09
2017-02-17T06:46:55.621Z,67
2017-02-17T06:47:55.631Z,66.9
2017-02-17T06:48:55.635Z,67
2017-02-17T06:49:55.656Z,66.9
2017-02-17T06:50:55.667Z,67
2017-02-17T06:51:55.692Z,66.61
2017-02-17T06:52:55.691Z,66.71
2017-02-17T06:53:55.715Z,66.71
2017-02-17T06:54:55.722Z,67.38
2017-02-17T06:55:55.723Z,66.52
2017-02-17T06:56:55.759Z,66.52
2017-02-17T06:57:55.775Z,67.09
2017-02-17T06:58:55.776Z,66.61
2017-02-17T06:59:55.791Z,66.8
2017-02-17T07:00:55.789Z,67.19
2017-02-17T07:01:55.821Z,67
2017-02-17T07:02:55.827Z,67
2017-02-17T07:03:55.854Z,67
2017-02-17T07:04:55.848Z,67.19
2017-02-17T07:05:55.859Z,67
2017-02-17T07:07:04.022Z,67
2017-02-17T07:07:55.917Z,67.76
2017-02-17T07:08:55.922Z,67.66
2017-02-17T07:09:55.912Z,67.66
2017-02-17T07:10:55.949Z,67.76
2017-02-17T07:11:56.008Z,67.47
2017-02-17T07:12:56.008Z,67.28
2017-02-17T07:13:56.024Z,67.19
2017-02-17T07:14:56.022Z,67.47
2017-02-17T07:15:56.033Z,67.66
2017-02-17T07:16:56.036Z,67.57
2017-02-17T07:17:56.047Z,67.19
2017-02-17T07:18:56.515Z,67.38
2017-02-17T07:19:56.079Z,67.47
2017-02-17T07:20:56.077Z,67.38
2017-02-17T07:21:56.081Z,67.19
2017-02-17T07:22:56.105Z,67.57
2017-02-17T07:23:56.115Z,67.66
2017-02-17T07:24:56.115Z,67.57
2017-02-17T07:25:56.143Z,67.66
2017-02-17T07:26:56.158Z,68.13
2017-02-17T07:27:56.158Z,67.47
2017-02-17T07:28:56.166Z,67.47
2017-02-17T07:29:56.194Z,67.47
2017-02-17T07:30:56.201Z,67.19
2017-02-17T07:31:56.215Z,67.28
2017-02-17T07:32:56.229Z,67.28
2017-02-17T07:33:56.251Z,67.19
2017-02-17T07:34:56.251Z,67.28
2017-02-17T07:35:56.268Z,67.28
2017-02-17T07:36:56.274Z,67.38
2017-02-17T07:37:56.294Z,67.47
2017-02-17T07:38:56.322Z,67.57
2017-02-17T07:39:56.332Z,67.47
2017-02-17T07:40:56.338Z,67.38
2017-02-17T07:41:56.347Z,67.66
2017-02-17T07:42:56.411Z,67.38
2017-02-17T07:43:56.376Z,67.38
2017-02-17T07:44:56.394Z,67.47
2017-02-17T07:45:56.400Z,67.66
2017-02-17T07:46:56.417Z,67.38
2017-02-17T07:47:56.438Z,67.66
2017-02-17T07:48:56.444Z,67.85
2017-02-17T07:49:56.452Z,67.76
2017-02-17T07:50:56.475Z,67.66
2017-02-17T07:51:56.483Z,68.04
2017-02-17T07:52:56.505Z,67.94
2017-02-17T07:53:56.497Z,68.13
2017-02-17T07:54:56.729Z,67.94
2017-02-17T07:55:56.549Z,67.94
2017-02-17T07:56:56.568Z,68.13
2017-02-17T07:57:56.579Z,67.85
2017-02-17T07:58:56.583Z,67.85
2017-02-17T07:59:56.624Z,68.13
2017-02-17T08:00:56.622Z,68.04
2017-02-17T08:01:56.615Z,67.94
2017-02-17T08:02:56.630Z,67.94
2017-02-17T08:03:56.650Z,68.04
2017-02-17T08:04:56.651Z,67.94
2017-02-17T08:05:56.668Z,67.66
2017-02-17T08:06:56.687Z,67.98
2017-02-17T08:07:56.698Z,67.85
2017-02-17T08:08:56.722Z,68.42
2017-02-17T08:09:56.723Z,68.07
2017-02-17T08:10:56.735Z,68.61
2017-02-17T08:11:56.760Z,67.88
2017-02-17T08:12:56.757Z,67.76
2017-02-17T08:13:56.792Z,68.13
2017-02-17T08:14:56.792Z,68.23
2017-02-17T08:15:56.803Z,68.07
2017-02-17T08:16:56.821Z,67.88
2017-02-17T08:17:56.832Z,67.88
2017-02-17T08:18:56.856Z,68.17
2017-02-17T08:19:56.850Z,68.07
2017-02-17T08:20:56.875Z,67.98
2017-02-17T08:21:56.897Z,68.17
2017-02-17T08:22:56.910Z,67.79
2017-02-17T08:23:56.914Z,67.88
2017-02-17T08:24:56.925Z,68.17
2017-02-17T08:25:56.968Z,67.88
2017-02-17T08:26:56.958Z,67.98
2017-02-17T08:27:56.973Z,68.17
2017-02-17T08:28:56.994Z,68.46
2017-02-17T08:29:57.000Z,68.46
2017-02-17T08:30:57.010Z,68.27
2017-02-17T08:31:57.041Z,68.36
2017-02-17T08:32:57.030Z,67.88
2017-02-17T08:33:57.060Z,68.46
2017-02-17T08:34:57.081Z,68.55
2017-02-17T08:35:57.078Z,68.17
2017-02-17T08:36:57.103Z,68.17
2017-02-17T08:37:57.110Z,68.74
2017-02-17T08:38:57.285Z,68.27
2017-02-17T08:39:57.126Z,68.46
2017-02-17T08:40:57.147Z,68.27
2017-02-17T08:41:57.164Z,68.46
2017-02-17T08:42:57.180Z,68.07
2017-02-17T08:43:57.184Z,68.27
2017-02-17T08:44:57.219Z,68.84
2017-02-17T08:45:57.241Z,67.98
2017-02-17T08:46:57.235Z,68.36
2017-02-17T08:47:57.264Z,68.36
2017-02-17T08:48:57.521Z,68.46
2017-02-17T08:49:57.273Z,68.46
2017-02-17T08:50:57.299Z,68.27
2017-02-17T08:51:57.308Z,67.88
2017-02-17T08:52:57.316Z,68.07
2017-02-17T08:53:57.353Z,67.88
2017-02-17T08:54:57.345Z,68.27
2017-02-17T08:55:57.361Z,67.73
2017-02-17T08:56:57.469Z,68.36
2017-02-17T08:57:57.464Z,67.82
2017-02-17T08:58:57.495Z,67.73
2017-02-17T08:59:57.489Z,67.73
2017-02-17T09:00:57.524Z,67.54
2017-02-17T09:01:57.512Z,67.54
2017-02-17T09:02:57.519Z,67.54
2017-02-17T09:03:57.547Z,67.44
2017-02-17T09:04:57.484Z,67.44
2017-02-17T09:05:57.488Z,67.35
2017-02-17T09:06:57.509Z,67.35
2017-02-17T09:07:57.529Z,67.54
2017-02-17T09:08:57.542Z,67.63
2017-02-17T09:09:57.556Z,67.63
2017-02-17T09:10:57.583Z,67.63
2017-02-17T09:11:57.586Z,67.63
2017-02-17T09:12:57.603Z,67.25
2017-02-17T09:13:57.612Z,67.92
2017-02-17T09:14:57.613Z,67.54
2017-02-17T09:15:57.643Z,66.97
2017-02-17T09:16:57.663Z,66.87
2017-02-17T09:17:57.698Z,66.87
2017-02-17T09:18:57.679Z,67.07
2017-02-17T09:19:57.696Z,67.16
2017-02-17T09:20:57.707Z,67.25
2017-02-17T09:21:57.727Z,67.07
2017-02-17T09:22:57.833Z,67.35
2017-02-17T09:23:57.762Z,66.81
2017-02-17T09:24:57.765Z,67.1
2017-02-17T09:25:57.789Z,66.62
2017-02-17T09:26:57.804Z,66.72
2017-02-17T09:27:57.804Z,66.72
2017-02-17T09:28:57.814Z,67
2017-02-17T09:29:57.827Z,66.91
2017-02-17T09:30:57.868Z,67.19
2017-02-17T09:31:57.866Z,67.47
2017-02-17T09:32:57.868Z,66.81
2017-02-17T09:33:57.892Z,67.19
2017-02-17T09:34:57.915Z,66.81
2017-02-17T09:35:57.523Z,67.1
2017-02-17T09:36:57.942Z,67
2017-02-17T09:37:57.660Z,67.1
2017-02-17T09:38:58.040Z,66.62
2017-02-17T09:39:57.664Z,66.72
2017-02-17T09:40:58.219Z,66.53
2017-02-17T09:41:57.734Z,66.72
2017-02-17T09:42:58.251Z,66.91
2017-02-17T09:43:58.220Z,66.91
2017-02-17T09:44:58.274Z,66.43
2017-02-17T09:45:58.273Z,66.91
2017-02-17T09:46:58.189Z,66.91
2017-02-17T09:47:58.100Z,66.33
2017-02-17T09:48:58.115Z,66.33
2017-02-17T09:49:58.133Z,66.53
2017-02-17T09:50:58.135Z,66.43
2017-02-17T09:51:58.157Z,66.53
2017-02-17T09:52:58.173Z,66.24
2017-02-17T09:53:58.163Z,66.56
2017-02-17T09:54:58.197Z,66.94
2017-02-17T09:55:58.208Z,66.46
2017-02-17T09:56:58.219Z,66.66
2017-02-17T09:57:58.253Z,66.85
2017-02-17T09:58:58.261Z,66.18
2017-02-17T09:59:58.270Z,66.56
2017-02-17T10:00:58.294Z,66.75
2017-02-17T10:01:58.296Z,66.37
2017-02-17T10:02:58.318Z,66.27
2017-02-17T10:03:58.337Z,66.56
2017-02-17T10:04:58.347Z,66.46
2017-02-17T10:05:58.358Z,66.46
2017-02-17T10:06:58.378Z,66.27
2017-02-17T10:07:58.391Z,65.99
2017-02-17T10:08:58.401Z,65.99
2017-02-17T10:09:58.433Z,65.99
2017-02-17T10:10:58.431Z,66.27
2017-02-17T10:11:58.438Z,65.89
2017-02-17T10:12:58.456Z,65.61
2017-02-17T10:13:58.481Z,65.83
2017-02-17T10:14:58.506Z,65.89
2017-02-17T10:15:58.517Z,65.73
2017-02-17T10:16:58.514Z,65.55
2017-02-17T10:17:58.537Z,65.83
2017-02-17T10:18:58.551Z,65.45
2017-02-17T10:19:58.565Z,65.26
2017-02-17T10:20:58.593Z,65.64
2017-02-17T10:21:58.613Z,65.16
2017-02-17T10:22:58.603Z,65.36
2017-02-17T10:23:58.782Z,65.45
2017-02-17T10:24:58.650Z,65.07
2017-02-17T10:25:58.648Z,65.07
2017-02-17T10:26:58.683Z,64.4
2017-02-17T10:27:58.692Z,64.87
2017-02-17T10:28:58.692Z,64.4
2017-02-17T10:29:58.707Z,64.4
2017-02-17T10:30:58.722Z,64.59
2017-02-17T10:31:58.746Z,64.59
2017-02-17T10:32:58.771Z,64.78
2017-02-17T10:33:58.781Z,64.31
2017-02-17T10:34:58.810Z,64.31
2017-02-17T10:35:58.820Z,64.31
2017-02-17T10:36:58.833Z,64.5
2017-02-17T10:37:58.848Z,64.69
2017-02-17T10:38:58.852Z,64.62
2017-02-17T10:39:58.885Z,64.05
2017-02-17T10:40:58.899Z,64.12
2017-02-17T10:41:58.911Z,64.21
2017-02-17T10:42:58.938Z,63.76
2017-02-17T10:43:58.955Z,63.48
2017-02-17T10:44:58.963Z,63.45
2017-02-17T10:45:58.997Z,63.96
2017-02-17T10:46:58.974Z,63.96
2017-02-17T10:47:59.001Z,63.39
2017-02-17T10:48:59.024Z,63.76
2017-02-17T10:49:58.636Z,63.29
2017-02-17T10:50:59.057Z,63
2017-02-17T10:51:59.067Z,62.72
2017-02-17T10:52:59.078Z,63.1
2017-02-17T10:53:58.685Z,63
2017-02-17T10:54:59.105Z,63.29
2017-02-17T10:55:59.109Z,63
2017-02-17T10:56:59.116Z,62.72
2017-02-17T10:57:59.160Z,62.91
2017-02-17T10:58:59.158Z,63
2017-02-17T10:59:59.194Z,63
2017-02-17T11:00:59.210Z,62.72
2017-02-17T11:01:59.216Z,63
2017-02-17T11:02:59.228Z,62.34
2017-02-17T11:03:59.445Z,62.72
2017-02-17T11:04:59.273Z,62.91
2017-02-17T11:05:59.272Z,63
2017-02-17T11:06:59.297Z,62.81
2017-02-17T11:07:59.434Z,62.81
2017-02-17T11:08:59.318Z,62.43
2017-02-17T11:09:59.440Z,62.43
2017-02-17T11:10:59.447Z,62.81
2017-02-17T11:11:59.478Z,62.62
2017-02-17T11:12:59.486Z,62.52
2017-02-17T11:13:59.007Z,62.72
2017-02-17T11:14:59.503Z,62.62
2017-02-17T11:15:59.510Z,62.75
2017-02-17T11:16:59.513Z,62.72
2017-02-17T11:17:59.513Z,62.84
2017-02-17T11:18:59.534Z,62.46
2017-02-17T11:19:59.593Z,62.75
2017-02-17T11:20:59.518Z,62.75
2017-02-17T11:21:59.524Z,62.08
2017-02-17T11:22:59.543Z,61.6
2017-02-17T11:23:59.567Z,61.89
2017-02-17T11:24:59.568Z,61.7
2017-02-17T11:25:59.601Z,61.99
2017-02-17T11:26:59.606Z,61.22
2017-02-17T11:27:59.230Z,61.51
2017-02-17T11:28:59.639Z,61.22
2017-02-17T11:29:59.656Z,61.41
2017-02-17T11:30:59.677Z,61.22
2017-02-17T11:31:59.696Z,60.94
2017-02-17T11:32:59.708Z,61.04
2017-02-17T11:33:59.728Z,61.22
2017-02-17T11:34:59.745Z,61.22
2017-02-17T11:35:59.752Z,61.13
2017-02-17T11:36:59.779Z,61.32
2017-02-17T11:37:59.805Z,61.13
2017-02-17T11:38:59.794Z,60.94
2017-02-17T11:39:59.818Z,61.04
2017-02-17T11:40:59.846Z,60.94
2017-02-17T11:41:59.848Z,60.81
2017-02-17T11:42:59.870Z,60.84
2017-02-17T11:43:59.486Z,60.84
2017-02-17T11:44:59.908Z,61.1
2017-02-17T11:45:59.907Z,60.72
2017-02-17T11:46:59.916Z,60.43
2017-02-17T11:48:00.034Z,60.81
2017-02-17T11:49:00.056Z,60.65
2017-02-17T11:49:59.975Z,60.91
2017-02-17T11:51:00.004Z,60.94
2017-02-17T11:52:00.089Z,61.13
2017-02-17T11:53:00.017Z,60.75
2017-02-17T11:54:00.045Z,60.75
2017-02-17T11:55:00.062Z,60.94
2017-02-17T11:56:00.084Z,60.46
2017-02-17T11:57:00.095Z,60.65
2017-02-17T11:58:00.119Z,60.46
2017-02-17T11:59:00.333Z,60.55
2017-02-17T12:00:00.248Z,60.65
2017-02-17T12:01:00.254Z,60.65
2017-02-17T12:02:00.259Z,60.27
2017-02-17T12:03:00.301Z,60.27
2017-02-17T12:04:00.316Z,60.84
2017-02-17T12:04:59.869Z,61.13
2017-02-17T12:06:00.290Z,61.04
2017-02-17T12:07:00.285Z,60.75
2017-02-17T12:08:00.287Z,60.65
2017-02-17T12:09:00.091Z,60.46
2017-02-17T12:10:00.328Z,60.75
2017-02-17T12:11:00.324Z,60.84
2017-02-17T12:12:00.328Z,60.46
2017-02-17T12:13:00.354Z,60.72
2017-02-17T12:14:00.381Z,60.81
2017-02-17T12:15:00.389Z,60.94
2017-02-17T12:16:00.402Z,61.04
2017-02-17T12:17:00.421Z,60.55
2017-02-17T12:18:00.437Z,60.81
2017-02-17T12:19:00.456Z,61.22
2017-02-17T12:20:00.464Z,61.04
2017-02-17T12:21:00.492Z,61
2017-02-17T12:22:00.521Z,61.29
2017-02-17T12:23:00.125Z,61.19
2017-02-17T12:24:00.140Z,60.81
2017-02-17T12:25:00.564Z,60.72
2017-02-17T12:26:00.172Z,60.55
2017-02-17T12:27:00.186Z,60.81
2017-02-17T12:28:00.604Z,60.72
2017-02-17T12:29:00.620Z,60.62
2017-02-17T12:30:00.631Z,60.62
2017-02-17T12:31:00.656Z,60.62
2017-02-17T12:32:00.685Z,60.72
2017-02-17T12:33:00.683Z,60.91
2017-02-17T12:34:00.702Z,60.91
2017-02-17T12:35:00.716Z,61
2017-02-17T12:36:00.744Z,60.72
2017-02-17T12:37:00.744Z,61.19
2017-02-17T12:38:00.381Z,61.29
2017-02-17T12:39:00.379Z,61.19
2017-02-17T12:40:00.402Z,61
2017-02-17T12:41:00.407Z,60.81
2017-02-17T12:42:00.837Z,61
2017-02-17T12:43:00.443Z,60.72
2017-02-17T12:44:00.873Z,61.19
2017-02-17T12:45:00.964Z,61.19
2017-02-17T12:46:02.322Z,61.19
2017-02-17T12:47:00.512Z,61
2017-02-17T12:48:01.118Z,61
2017-02-17T12:49:00.532Z,61
2017-02-17T12:50:00.956Z,61.57
2017-02-17T12:51:00.979Z,61.67
2017-02-17T12:52:01.004Z,61.67
2017-02-17T12:53:01.011Z,61.76
2017-02-17T12:54:01.035Z,61.67
2017-02-17T12:55:01.041Z,62.05
2017-02-17T12:56:00.653Z,62.81
2017-02-17T12:57:01.158Z,62.34
2017-02-17T12:58:00.807Z,62.62